Impacts METAR Board
IDs:

KECU - Rocksprings/Edwards, TX, US

Updated at: 0600 UTC 19 Aug 2019
Potential Impact None Slight Moderate High
Time 18/18Z 18/19Z 18/20Z 18/21Z 18/22Z 18/23Z 19/00Z 19/01Z 19/02Z 19/03Z 19/04Z 19/05Z 19/06Z
Temp88 91 93 95 95 95 95 91 88 86 82 84 82
Dewpt68 64 66 64 64 61 63 63 63 64 64 66 72
Altim30.02 30.00 29.99 29.97 29.96 29.95 29.94 29.95 29.96 29.98 30.01 30.02 30.04
VIS8 8 9 9 9 9 8 9 10 10 10 10 10
CIG-- -- -- -- -- -- -- -- -- -- -- -- --
CoverCLRCLRCLRCLRCLRCLRCLRCLRCLRCLRFEWFEWCLR
FltCatVFRVFRVFRVFRVFRVFRVFRVFRVFRVFRVFRVFRVFR
WX--------------------------
WDir1501601601600160170140140120110140140
WSpd10 10 11 12 6 7 7 6 7 4 4 8 11
WGst-- 17 19 -- 12 -- 13 13 -- -- -- 13 20
Raw hourly METARs
KECU 181755Z AUTO 15010KT 8SM CLR 31/20 A3002 RMK AO2
KECU 181855Z AUTO 16010G17KT 8SM CLR 33/18 A3000 RMK AO2
KECU 181955Z AUTO 16011G19KT 140V200 9SM CLR 34/19 A2999 RMK AO2
KECU 182055Z AUTO 16012KT 9SM CLR 35/18 A2997 RMK AO2
KECU 182155Z AUTO VRB06G12KT 9SM CLR 35/18 A2996 RMK AO2
KECU 182255Z AUTO 16007KT 9SM CLR 35/16 A2995 RMK AO2
KECU 182355Z AUTO 17007G13KT 8SM CLR 35/17 A2994 RMK AO2
KECU 190055Z AUTO 14006G13KT 9SM CLR 33/17 A2995 RMK AO2
KECU 190155Z AUTO 14007KT 10SM CLR 31/17 A2996 RMK AO2
KECU 190255Z AUTO 12004KT 10SM CLR 30/18 A2998 RMK AO2
KECU 190355Z AUTO 11004KT 10SM FEW055 28/18 A3001 RMK AO2
KECU 190455Z AUTO 14008G13KT 10SM FEW050 29/19 A3002 RMK AO2
KECU 190555Z AUTO 14011G20KT 10SM CLR 28/22 A3004 RMK AO2



Page loaded:  06:28 UTC  |   11:28 PM Pacific  |   12:28 AM Mountain  |   01:28 AM Central  |   02:28 AM Eastern

 

ADVISORIES

FORECASTS

FORECASTS

OBSERVATIONS

USER TOOLS

ABOUT US